createdAt,value
2019-03-23T00:05:02.569Z,10.30
2019-03-23T00:11:23.258Z,10.30
2019-03-23T00:20:46.564Z,9.90
2019-03-23T00:23:16.598Z,9.80
2019-03-23T00:26:37.412Z,9.70
2019-03-23T00:29:13.231Z,9.60
2019-03-23T00:32:31.536Z,9.80
2019-03-23T00:35:05.893Z,9.80
2019-03-23T00:40:17.686Z,10.00
2019-03-23T00:42:54.929Z,9.70
2019-03-23T00:45:34.716Z,9.70
2019-03-23T00:48:32.683Z,9.60
2019-03-23T00:51:10.976Z,9.70
2019-03-23T00:56:38.833Z,9.50
2019-03-23T00:59:55.743Z,9.60
2019-03-23T01:02:34.888Z,9.80
2019-03-23T01:07:57.677Z,9.70
2019-03-23T01:13:24.156Z,9.50
2019-03-23T01:15:56.486Z,9.50
2019-03-23T01:18:36.238Z,9.40
2019-03-23T01:21:06.840Z,9.30
2019-03-23T01:24:09.697Z,9.30
2019-03-23T01:26:45.112Z,9.40
2019-03-23T01:29:20.779Z,9.50
2019-03-23T01:32:36.816Z,9.60
2019-03-23T01:35:11.663Z,9.50
2019-03-23T01:40:56.677Z,9.30
2019-03-23T01:46:41.263Z,9.20
2019-03-23T01:57:34.390Z,9.00
2019-03-23T02:00:07.266Z,9.30
2019-03-23T02:02:44.940Z,9.40
2019-03-23T02:05:14.834Z,9.50
2019-03-23T02:08:22.101Z,9.30
2019-03-23T02:10:54.085Z,9.40
2019-03-23T02:13:27.893Z,9.40
2019-03-23T02:16:31.585Z,9.30
2019-03-23T02:19:08.624Z,9.40
2019-03-23T02:21:40.937Z,9.50
2019-03-23T02:24:17.051Z,9.40
2019-03-23T02:26:47.330Z,9.20
2019-03-23T02:29:18.129Z,9.10
2019-03-23T02:31:59.927Z,9.00
2019-03-23T02:34:33.503Z,8.90
2019-03-23T02:37:49.335Z,9.00
2019-03-23T02:40:23.301Z,8.90
2019-03-23T02:43:01.252Z,8.80
2019-03-23T02:45:31.780Z,8.80
2019-03-23T02:48:01.798Z,8.60
2019-03-23T02:50:34.254Z,8.60
2019-03-23T02:53:11.801Z,8.70
2019-03-23T02:55:45.636Z,8.70
2019-03-23T02:58:46.334Z,8.70
2019-03-23T03:01:22.486Z,8.50
2019-03-23T03:06:52.006Z,8.30
2019-03-23T03:09:24.747Z,8.50
2019-03-23T03:12:40.538Z,8.50
2019-03-23T03:15:11.183Z,8.60
2019-03-23T03:17:47.723Z,8.70
2019-03-23T03:20:22.074Z,8.50
2019-03-23T03:22:59.083Z,8.20
2019-03-23T03:25:32.090Z,8.20
2019-03-23T03:29:09.539Z,8.10
2019-03-23T03:30:39.232Z,8.20
2019-03-23T03:33:14.682Z,8.10
2019-03-23T03:36:30.075Z,8.20
2019-03-23T03:39:01.053Z,8.20
2019-03-23T03:41:30.894Z,8.20
2019-03-23T03:44:34.300Z,8.20
2019-03-23T03:47:15.595Z,8.30
2019-03-23T03:52:44.070Z,8.50
2019-03-23T03:55:16.056Z,8.30
2019-03-23T03:57:48.285Z,8.20
2019-03-23T04:00:20.645Z,8.00
2019-03-23T04:02:52.186Z,9.30
2019-03-23T04:05:28.906Z,7.80
2019-03-23T04:08:11.548Z,8.00
2019-03-23T04:10:41.884Z,8.20
2019-03-23T04:13:15.897Z,8.10
2019-03-23T04:15:48.016Z,8.30
2019-03-23T04:18:21.747Z,8.40
2019-03-23T04:20:53.133Z,8.60
2019-03-23T04:23:31.198Z,8.90
2019-03-23T04:26:02.876Z,8.80
2019-03-23T04:28:34.239Z,8.90
2019-03-23T04:31:08.823Z,9.00
2019-03-23T04:33:45.325Z,9.00
2019-03-23T04:36:22.314Z,8.90
2019-03-23T04:38:55.265Z,11.10
2019-03-23T04:41:26.676Z,9.10
2019-03-23T04:44:18.331Z,9.20
2019-03-23T04:46:47.141Z,9.20
2019-03-23T04:49:22.339Z,9.20
2019-03-23T04:51:55.598Z,9.30
2019-03-23T04:54:30.778Z,9.20
2019-03-23T04:57:02.171Z,9.20
2019-03-23T04:59:37.209Z,9.10
2019-03-23T05:02:08.425Z,9.30
2019-03-23T05:04:38.476Z,9.30
2019-03-23T05:07:16.160Z,9.20
2019-03-23T05:09:50.531Z,9.20
2019-03-23T05:12:24.765Z,9.30
2019-03-23T05:14:56.390Z,9.30
2019-03-23T05:17:32.166Z,9.30
2019-03-23T05:20:05.536Z,9.40
2019-03-23T05:22:37.871Z,9.40
2019-03-23T05:25:11.436Z,9.50
2019-03-23T05:27:47.931Z,9.60
2019-03-23T05:30:21.136Z,9.60
2019-03-23T05:32:53.637Z,9.60
2019-03-23T05:35:25.522Z,9.70
2019-03-23T05:37:57.586Z,9.70
2019-03-23T05:40:32.846Z,9.50
2019-03-23T05:43:06.120Z,9.50
2019-03-23T05:45:43.378Z,9.60
2019-03-23T05:48:15.052Z,9.60
2019-03-23T05:50:47.880Z,9.50
2019-03-23T05:53:20.744Z,9.60
2019-03-23T05:56:02.756Z,9.70
2019-03-23T05:58:33.322Z,9.50
2019-03-23T06:01:06.946Z,9.60
2019-03-23T06:03:39.186Z,9.60
2019-03-23T06:06:10.781Z,9.50
2019-03-23T06:08:54.444Z,9.70
2019-03-23T06:11:19.863Z,9.80
2019-03-23T06:13:57.370Z,10.00
2019-03-23T06:16:32.027Z,10.00
2019-03-23T06:19:03.802Z,10.00
2019-03-23T06:21:37.627Z,10.00
2019-03-23T06:24:22.313Z,10.10
2019-03-23T06:27:01.884Z,10.10
2019-03-23T06:29:43.744Z,7.90
2019-03-23T06:32:21.108Z,10.10
2019-03-23T06:34:56.884Z,10.00
2019-03-23T06:40:25.049Z,10.20
2019-03-23T06:43:00.035Z,10.40
2019-03-23T06:45:35.629Z,10.40
2019-03-23T06:48:13.797Z,9.90
2019-03-23T06:50:43.096Z,9.70
2019-03-23T06:53:15.841Z,9.70
2019-03-23T06:55:50.701Z,9.80
2019-03-23T06:58:22.359Z,9.90
2019-03-23T07:00:57.318Z,10.00
2019-03-23T07:03:33.963Z,10.00
2019-03-23T07:06:07.326Z,9.90
2019-03-23T07:08:41.803Z,9.80
2019-03-23T07:11:19.282Z,8.80
2019-03-23T07:13:51.455Z,9.90
2019-03-23T07:16:24.985Z,9.80
2019-03-23T07:19:01.322Z,9.80
2019-03-23T07:21:40.399Z,9.90
2019-03-23T07:24:20.670Z,9.90
2019-03-23T07:26:51.999Z,9.80
2019-03-23T07:29:22.836Z,9.90
2019-03-23T07:32:05.728Z,10.00
2019-03-23T07:34:35.234Z,10.10
2019-03-23T07:37:14.847Z,9.80
2019-03-23T07:39:44.820Z,9.90
2019-03-23T07:42:23.848Z,10.10
2019-03-23T07:45:03.091Z,10.10
2019-03-23T07:47:34.874Z,9.90
2019-03-23T07:50:10.370Z,10.00
2019-03-23T07:52:47.472Z,12.60
2019-03-23T07:55:20.881Z,10.20
2019-03-23T07:57:53.362Z,10.20
2019-03-23T08:00:27.233Z,10.10
2019-03-23T08:03:01.274Z,10.00
2019-03-23T08:05:37.323Z,10.20
2019-03-23T08:08:12.370Z,10.30
2019-03-23T08:10:46.721Z,9.90
2019-03-23T08:13:28.146Z,10.10
2019-03-23T08:15:59.295Z,10.00
2019-03-23T08:18:32.088Z,10.30
2019-03-23T08:21:05.595Z,8.40
2019-03-23T08:23:40.606Z,10.00
2019-03-23T08:26:14.754Z,10.10
2019-03-23T08:28:46.584Z,10.00
2019-03-23T08:31:18.318Z,10.00
2019-03-23T08:33:48.772Z,10.10
2019-03-23T08:36:19.903Z,10.20
2019-03-23T08:38:53.163Z,10.40
2019-03-23T08:41:31.403Z,10.30
2019-03-23T08:44:16.328Z,10.30
2019-03-23T08:46:55.649Z,10.20
2019-03-23T08:49:28.655Z,10.10
2019-03-23T08:51:59.843Z,10.10
2019-03-23T08:54:31.506Z,10.20
2019-03-23T08:57:02.047Z,10.10
2019-03-23T08:59:33.728Z,10.00
2019-03-23T09:02:04.708Z,10.00
2019-03-23T09:04:34.895Z,12.00
2019-03-23T09:07:09.780Z,10.00
2019-03-23T09:09:45.246Z,10.00
2019-03-23T09:12:20.497Z,10.20
2019-03-23T09:14:51.861Z,10.30
2019-03-23T09:17:26.490Z,10.50
2019-03-23T09:20:02.214Z,10.50
2019-03-23T09:22:34.820Z,10.30
2019-03-23T09:25:04.861Z,10.30
2019-03-23T09:27:44.399Z,10.30
2019-03-23T09:30:23.713Z,10.20
2019-03-23T09:32:57.029Z,10.20
2019-03-23T09:35:30.223Z,10.20
2019-03-23T09:38:02.857Z,10.30
2019-03-23T09:40:35.212Z,10.40
2019-03-23T09:43:07.300Z,10.20
2019-03-23T09:45:50.357Z,10.40
2019-03-23T09:48:34.376Z,10.40
2019-03-23T09:51:06.098Z,10.50
2019-03-23T09:53:40.363Z,10.50
2019-03-23T09:56:12.912Z,10.60
2019-03-23T09:58:51.534Z,10.40
2019-03-23T10:01:24.425Z,10.30
2019-03-23T10:03:55.580Z,10.10
2019-03-23T10:06:34.417Z,10.50
2019-03-23T10:09:11.196Z,10.70
2019-03-23T10:11:46.357Z,10.60
2019-03-23T10:14:17.489Z,10.80
2019-03-23T10:16:52.467Z,10.80
2019-03-23T10:19:23.541Z,8.70
2019-03-23T10:21:58.700Z,11.10
2019-03-23T10:24:28.748Z,11.10
2019-03-23T10:27:03.132Z,11.30
2019-03-23T10:29:34.247Z,11.40
2019-03-23T10:32:16.481Z,11.40
2019-03-23T10:34:52.054Z,11.70
2019-03-23T10:37:27.614Z,11.90
2019-03-23T10:40:00.077Z,11.70
2019-03-23T10:42:30.022Z,11.70
2019-03-23T10:44:59.956Z,11.80
2019-03-23T10:47:35.445Z,11.90
2019-03-23T10:50:12.047Z,11.70
2019-03-23T10:52:36.876Z,12.50
2019-03-23T10:55:13.375Z,10.00
2019-03-23T10:57:42.490Z,10.10
2019-03-23T11:00:35.095Z,10.50
2019-03-23T11:02:49.080Z,10.70
2019-03-23T11:05:22.616Z,11.10
2019-03-23T11:07:57.621Z,10.20
2019-03-23T11:10:28.211Z,11.20
2019-03-23T11:13:06.659Z,11.30
2019-03-23T11:16:10.810Z,10.80
2019-03-23T11:18:40.756Z,10.80
2019-03-23T11:21:46.694Z,10.20
2019-03-23T11:24:21.484Z,10.30
2019-03-23T11:26:51.635Z,10.20
2019-03-23T11:29:28.432Z,10.10
2019-03-23T11:31:56.930Z,10.20
2019-03-23T11:34:30.232Z,10.50
2019-03-23T11:37:01.412Z,10.60
2019-03-23T11:39:34.876Z,9.20
2019-03-23T11:42:07.820Z,11.20
2019-03-23T11:44:36.940Z,11.00
2019-03-23T11:47:39.443Z,10.90
2019-03-23T11:50:11.669Z,10.50
2019-03-23T11:53:28.737Z,8.70
2019-03-23T11:56:03.820Z,10.80
2019-03-23T11:58:34.123Z,11.20
2019-03-23T12:05:06.107Z,10.60
2019-03-23T12:07:35.221Z,10.20
2019-03-23T12:10:39.448Z,10.10
2019-03-23T12:13:26.347Z,12.40
2019-03-23T12:18:53.267Z,10.50
2019-03-23T12:21:24.673Z,11.00
2019-03-23T12:24:47.592Z,11.20
2019-03-23T12:27:22.274Z,11.50
2019-03-23T12:30:42.665Z,11.80
2019-03-23T12:33:22.334Z,12.00
2019-03-23T12:36:23.000Z,11.70
2019-03-23T12:39:03.689Z,11.90
2019-03-23T12:42:11.575Z,12.30
2019-03-23T12:44:43.095Z,12.60
2019-03-23T12:48:01.626Z,12.50
2019-03-23T12:50:31.354Z,12.50
2019-03-23T13:00:12.183Z,12.10
2019-03-23T13:02:44.231Z,12.20
2019-03-23T13:12:16.648Z,11.90
2019-03-23T13:14:51.169Z,12.20
2019-03-23T13:17:50.103Z,12.30
2019-03-23T13:20:22.941Z,12.60
2019-03-23T13:23:32.415Z,12.70
2019-03-23T13:26:03.756Z,12.70
2019-03-23T13:29:33.335Z,10.60
2019-03-23T13:31:58.541Z,13.30
2019-03-23T13:35:03.036Z,13.60
2019-03-23T13:37:37.747Z,13.60
2019-03-23T13:40:57.776Z,13.50
2019-03-23T13:43:31.371Z,13.30
2019-03-23T13:53:15.103Z,12.40
2019-03-23T13:55:50.139Z,12.00
2019-03-23T13:58:29.081Z,11.90
2019-03-23T14:01:00.366Z,12.10
2019-03-23T14:04:14.835Z,12.00
2019-03-23T14:06:51.939Z,12.00
2019-03-23T14:09:52.087Z,12.20
2019-03-23T14:12:21.778Z,12.30
2019-03-23T14:15:25.369Z,12.30
2019-03-23T14:17:57.428Z,12.40
2019-03-23T14:21:02.213Z,12.80
2019-03-23T14:23:31.587Z,12.60
2019-03-23T14:26:31.202Z,12.60
2019-03-23T14:29:03.050Z,12.90
2019-03-23T14:32:27.449Z,12.80
2019-03-23T14:35:01.120Z,12.60
2019-03-23T14:38:11.497Z,12.90
2019-03-23T14:40:44.315Z,12.20
2019-03-23T14:43:57.361Z,12.30
2019-03-23T14:46:30.105Z,12.30
2019-03-23T14:49:27.358Z,12.00
2019-03-23T14:51:59.400Z,12.00
2019-03-23T14:55:03.208Z,12.20
2019-03-23T14:57:35.437Z,12.30
2019-03-23T15:00:39.332Z,12.30
2019-03-23T15:03:13.392Z,12.10
2019-03-23T15:06:20.025Z,12.30
2019-03-23T15:08:50.708Z,12.30
2019-03-23T15:12:15.210Z,13.90
2019-03-23T15:14:45.281Z,12.60
2019-03-23T15:17:49.236Z,12.70
2019-03-23T15:20:20.832Z,12.60
2019-03-23T15:23:40.637Z,12.60
2019-03-23T15:26:22.603Z,12.50
2019-03-23T15:28:58.844Z,14.40
2019-03-23T15:38:45.733Z,12.90
2019-03-23T15:41:18.444Z,12.80
2019-03-23T15:43:50.563Z,12.80
2019-03-23T15:47:15.167Z,12.80
2019-03-23T15:49:46.222Z,12.80
2019-03-23T15:52:52.257Z,12.50
2019-03-23T15:55:28.706Z,12.20
2019-03-23T15:58:51.221Z,12.10
2019-03-23T16:01:24.187Z,12.00
2019-03-23T16:04:50.429Z,12.30
2019-03-23T16:07:29.298Z,12.30
2019-03-23T16:10:03.776Z,14.60
2019-03-23T16:16:13.529Z,12.10
2019-03-23T16:18:50.219Z,13.30
2019-03-23T16:21:24.561Z,12.10
2019-03-23T16:23:57.958Z,12.30
2019-03-23T16:27:08.245Z,12.70
2019-03-23T16:29:39.536Z,12.40
2019-03-23T16:32:38.925Z,12.70
2019-03-23T16:35:13.719Z,13.00
2019-03-23T16:38:28.280Z,12.80
2019-03-23T16:40:58.303Z,12.90
2019-03-23T16:44:11.376Z,13.10
2019-03-23T16:46:45.829Z,10.60
2019-03-23T16:49:54.644Z,13.90
2019-03-23T16:52:26.047Z,12.20
2019-03-23T16:55:46.049Z,12.40
2019-03-23T16:58:17.411Z,12.30
2019-03-23T17:01:14.868Z,12.00
2019-03-23T17:03:46.134Z,12.30
2019-03-23T17:07:00.111Z,11.20
2019-03-23T17:09:31.742Z,12.30
2019-03-23T17:12:30.721Z,12.10
2019-03-23T17:15:03.257Z,12.20
2019-03-23T17:18:09.238Z,12.30
2019-03-23T17:20:39.265Z,12.30
2019-03-23T17:23:44.441Z,12.00
2019-03-23T17:26:18.264Z,12.00
2019-03-23T17:29:23.933Z,12.10
2019-03-23T17:31:54.858Z,12.40
2019-03-23T17:34:49.704Z,12.00
2019-03-23T17:37:31.470Z,12.10
2019-03-23T17:40:38.242Z,12.20
2019-03-23T17:43:18.223Z,12.30
2019-03-23T17:46:17.018Z,12.40
2019-03-23T17:48:54.261Z,12.50
2019-03-23T17:52:02.519Z,12.50
2019-03-23T17:54:35.230Z,12.50
2019-03-23T17:57:10.279Z,12.60
2019-03-23T17:59:44.005Z,12.70
2019-03-23T18:02:13.633Z,12.70
2019-03-23T18:04:43.765Z,10.70
2019-03-23T18:07:24.647Z,12.70
2019-03-23T18:10:43.096Z,12.70
2019-03-23T18:13:16.679Z,12.70
2019-03-23T18:16:27.552Z,12.60
2019-03-23T18:18:58.138Z,12.60
2019-03-23T18:22:22.102Z,12.60
2019-03-23T18:24:51.233Z,11.00
2019-03-23T18:28:10.684Z,12.20
2019-03-23T18:30:54.747Z,12.30
2019-03-23T18:33:44.463Z,12.30
2019-03-23T18:36:12.213Z,12.30
2019-03-23T18:39:33.141Z,12.00
2019-03-23T18:42:04.429Z,12.10
2019-03-23T18:45:28.336Z,12.10
2019-03-23T18:48:04.687Z,12.30
2019-03-23T18:51:31.853Z,12.20
2019-03-23T18:54:03.970Z,12.20
2019-03-23T18:56:38.099Z,12.40
2019-03-23T18:59:14.101Z,12.40
2019-03-23T19:01:51.935Z,12.40
2019-03-23T19:04:24.774Z,12.20
2019-03-23T19:07:40.199Z,12.10
2019-03-23T19:10:16.536Z,12.30
2019-03-23T19:13:10.739Z,14.30
2019-03-23T19:15:42.889Z,12.50
2019-03-23T19:19:01.201Z,12.40
2019-03-23T19:21:38.178Z,12.30
2019-03-23T19:24:59.250Z,12.10
2019-03-23T19:27:38.479Z,10.70
2019-03-23T19:30:50.068Z,12.60
2019-03-23T19:33:18.204Z,12.60
2019-03-23T19:36:38.796Z,10.30
2019-03-23T19:39:10.494Z,11.30
2019-03-23T19:42:24.555Z,12.40
2019-03-23T19:44:58.599Z,12.40
2019-03-23T19:47:59.181Z,12.40
2019-03-23T19:50:31.212Z,12.30
2019-03-23T19:53:35.649Z,12.20
2019-03-23T19:56:10.780Z,12.20
2019-03-23T19:59:16.562Z,12.10
2019-03-23T20:01:49.219Z,12.00
2019-03-23T20:04:55.598Z,12.00
2019-03-23T20:07:33.099Z,12.00
2019-03-23T20:10:53.424Z,11.90
2019-03-23T20:13:34.977Z,11.90
2019-03-23T20:16:45.084Z,11.80
2019-03-23T20:19:15.868Z,11.80
2019-03-23T20:22:33.884Z,11.80
2019-03-23T20:25:15.823Z,11.80
2019-03-23T20:28:16.097Z,12.10
2019-03-23T20:30:47.736Z,12.10
2019-03-23T20:33:56.859Z,12.20
2019-03-23T20:36:32.634Z,12.30
2019-03-23T20:46:14.662Z,12.50
2019-03-23T20:48:56.187Z,12.50
2019-03-23T20:51:27.766Z,12.60
2019-03-23T20:54:01.564Z,12.70
2019-03-23T20:57:37.375Z,12.70
2019-03-23T21:00:11.914Z,12.70
2019-03-23T21:03:32.331Z,12.50
2019-03-23T21:06:02.889Z,12.40
2019-03-23T21:09:11.960Z,12.40
2019-03-23T21:11:43.821Z,12.40
2019-03-23T21:14:58.855Z,12.50
2019-03-23T21:17:29.695Z,12.60
2019-03-23T21:20:55.734Z,12.50
2019-03-23T21:23:27.587Z,12.50
2019-03-23T21:26:44.618Z,12.50
2019-03-23T21:29:24.054Z,12.40
2019-03-23T21:32:23.098Z,12.40
2019-03-23T21:35:00.637Z,12.30
2019-03-23T21:38:30.174Z,12.30
2019-03-23T21:41:05.321Z,12.20
2019-03-23T21:57:28.366Z,12.10
2019-03-23T22:00:48.777Z,12.20
2019-03-23T22:03:29.431Z,12.20
2019-03-23T22:08:57.273Z,12.20
2019-03-23T22:12:03.332Z,12.20
2019-03-23T22:14:41.570Z,12.10
2019-03-23T22:17:32.817Z,12.10
2019-03-23T22:20:03.649Z,12.10
2019-03-23T22:23:07.499Z,12.10
2019-03-23T22:25:40.923Z,13.00
2019-03-23T22:28:48.628Z,12.10
2019-03-23T22:31:15.798Z,12.20
2019-03-23T22:34:11.897Z,12.20
2019-03-23T22:36:46.066Z,12.20
2019-03-23T22:39:50.916Z,12.10
2019-03-23T22:42:23.259Z,12.10
2019-03-23T22:45:20.715Z,12.10
2019-03-23T22:47:51.642Z,12.10
2019-03-23T22:51:10.225Z,12.80
2019-03-23T22:53:46.055Z,13.50
2019-03-23T22:56:39.889Z,12.10
2019-03-23T22:59:15.550Z,12.00
2019-03-23T23:02:40.991Z,12.00
2019-03-23T23:05:12.134Z,11.90
2019-03-23T23:07:44.543Z,11.80
2019-03-23T23:14:24.827Z,11.70
2019-03-23T23:16:58.038Z,11.70
2019-03-23T23:19:31.218Z,11.60
2019-03-23T23:29:03.914Z,11.60
2019-03-23T23:31:36.395Z,11.30
2019-03-23T23:36:54.215Z,11.10
2019-03-23T23:39:26.187Z,11.20
2019-03-23T23:42:21.373Z,11.30
2019-03-23T23:44:51.752Z,11.30
2019-03-23T23:48:14.062Z,11.40
2019-03-23T23:50:45.246Z,11.50
2019-03-23T23:54:10.707Z,11.50
2019-03-23T23:56:42.864Z,11.50
2019-03-23T23:59:16.357Z,11.50
